• Join FlightAware (Why Join?)
  • Login
  • US Flag GB Flag 
20:29 EDT


 

Airport Tracker/Info


-or-


 

Live Flight TrackerFlight Track Log ✈ UAL4476 ✈ 14-Apr-2013 ✈ KCLE - KBOS

Flight Track Log - Related Links

Times and Time Zones

All times are in EDT time to prevent confusion due to time zone crossing. See the UAL4476 flight status page for this flight to view local times or setup timezone preferences in your user account.

Time Position Orientation Groundspeed Altitude Reporting Facility
EDT Latitude Longitude Course Direction KTS MPH feet Rate Location/Type
08:45 41.3897 -81.8894 265° West 174 200 2,000  Level Cleveland Center
08:46 41.3872 -81.9308 265° West 183 211 3,400 2,160 Climbing Cleveland Center
08:47 41.4222 -81.9567 331° Northwest 190 219 5,400 2,280 Climbing Cleveland Center
08:48 41.4753 -81.8828 46° Northeast 153 176 7,900 2,340 Climbing Cleveland Center
08:49 41.5322 -81.8147 42° Northeast 224 258 10,100 1,500 Climbing Cleveland Center
08:50 41.5956 -81.7325 44° Northeast 291 335 10,900 840 Climbing Cleveland Center
08:51 41.6758 -81.6311 43° Northeast 339 390 11,800 1,080 Climbing Cleveland Center
08:52 41.7414 -81.5153 53° Northeast 369 425 13,100 1,320 Climbing Cleveland Center
08:53 41.7675 -81.3625 77° East 391 450 14,500 1,320 Climbing Cleveland Center
08:54 41.7936 -81.2069 77° East 411 473 15,800 1,320 Climbing Cleveland Center
08:55 41.8172 -81.0567 78° East 416 479 17,200 1,200 Climbing Cleveland Center
08:56 41.8428 -80.9008 78° East 421 484 18,200 960 Climbing Cleveland Center
08:57 41.8931 -80.7561 65° Northeast 421 484 19,200 960 Climbing Cleveland Center
08:58 41.9453 -80.6083 65° Northeast 431 496 20,200 960 Climbing Cleveland Center
08:59 41.9933 -80.4547 67° East 442 509 21,200 900 Climbing Cleveland Center
09:00 42.0200 -80.3036 77° East 447 514 22,100 960 Climbing Cleveland Center
09:01 42.0444 -80.1358 79° East 458 527 23,200 1,020 Climbing Cleveland Center
09:02 42.0667 -79.9650 80° East 463 533 24,200 1,020 Climbing Cleveland Center
09:03 42.0908 -79.7969 79° East 463 533 25,300 1,140 Climbing Cleveland Center
09:04 42.1144 -79.6286 79° East 463 533 26,500 1,140 Climbing Cleveland Center
09:05 42.1381 -79.4603 79° East 458 527 27,600 1,020 Climbing Cleveland Center
09:06 42.1592 -79.2919 80° East 458 527 28,600 900 Climbing Cleveland Center
09:07 42.1800 -79.1233 80° East 453 521 29,500 900 Climbing Cleveland Center
09:08 42.2028 -78.9547 80° East 453 521 30,400 900 Climbing Cleveland Center
09:09 42.2292 -78.7606 80° East 458 527 31,400 900 Climbing Cleveland Center
09:10 42.2533 -78.5858 79° East 469 540 32,200 660 Climbing Cleveland Center
09:11 42.2731 -78.4083 81° East 469 540 32,800 360 Climbing Cleveland Center
09:12 42.2964 -78.2281 80° East 474 545 33,000 60 Climbing Cleveland Center
09:13 42.3197 -78.0444 80° East 479 551 33,000  Level Cleveland Center
09:14 42.3406 -77.8611 81° East 490 564 33,000  Level Cleveland Center
09:15 42.3594 -77.6944 81° East 495 570 33,000  Level Cleveland Center
09:16 42.3819 -77.5136 80° East 495 570 33,000  Level Cleveland Center
09:17 42.4144 -77.2161 81° East 499 574 33,000  Level Boston Center
09:18 42.4347 -77.0319 81° East 499 574 33,000  Level Boston Center
09:19 42.4544 -76.8503 82° East 499 574 33,000  Level Boston Center
09:20 42.4758 -76.6689 81° East 494 568 33,000  Level Boston Center
09:21 42.4928 -76.4897 83° East 460 529 33,000  Level Boston Center
09:22 42.5139 -76.3078 81° East 476 548 33,000  Level Boston Center
09:23 42.5325 -76.1231 82° East 486 559 33,000  Level Boston Center
09:24 42.5508 -75.9408 82° East 491 565 33,000  Level Boston Center
09:25 42.5689 -75.7528 83° East 491 565 33,000  Level Boston Center
09:26 42.5892 -75.5481 82° East 503 579 33,000  Level Boston Center
09:27 42.6089 -75.3600 82° East 498 573 33,000  Level Boston Center
09:29 42.6289 -75.1353 83° East 498 573 33,000  Level Boston Center
09:30 42.6458 -74.9439 83° East 503 579 33,000  Level Boston Center
09:31 42.6644 -74.7556 82° East 498 573 33,000  Level Boston Center
09:32 42.6806 -74.5639 83° East 498 573 33,000  Level Boston Center
09:33 42.6883 -74.3722 87° East 504 580 33,000  Level Boston Center
09:34 42.6811 -74.1769 93° East 504 580 33,000  Level Boston Center
09:35 42.6692 -73.9847 95° East 509 586 33,000  Level Boston Center
09:36 42.6550 -73.7922 96° East 509 586 33,000 -60 Level Boston Center
09:37 42.6489 -73.5944 92° East 514 592 32,900 -540 Descending Boston Center
09:38 42.6361 -73.4025 95° East 514 592 32,000 -960 Descending Boston Center
09:39 42.6250 -73.2103 94° East 514 592 31,000 -1,200 Descending Boston Center
09:40 42.6136 -73.0156 94° East 521 600 29,700 -1,380 Descending Boston Center
09:41 42.6019 -72.8322 95° East 521 600 28,300 -1,680 Descending Boston Center
09:42 42.5858 -72.6289 96° East 528 608 26,300 -2,280 Descending Boston Center
09:43 42.5733 -72.4289 95° East 528 608 23,900 -2,640 Descending Boston Center
09:44 42.5586 -72.2400 96° East 528 608 21,200 -3,000 Descending Boston Center
09:45 42.5456 -72.0597 96° East 486 559 17,900 -3,840 Descending Boston Center
09:46 42.5283 -71.8767 97° East 455 524 13,500 -3,060 Descending Boston Center
09:47 42.5169 -71.7444 97° East 410 472 11,300 -1,380 Descending Boston Center
09:47 42.5000 -71.6000 99° East 386 444 11,100 -180 Descending KA90
09:48 42.4833 -71.4833 101° East 390 449 11,100  Level KA90
09:49 42.4667 -71.3167 98° East 392 451 11,100 -60 Level KA90
09:50 42.4500 -71.1667 99° East 393 452 11,000 -540 Descending KA90
09:51 42.4500 -71.0500 90° East 331 381 10,100 -1,260 Descending KA90
09:52 42.4333 -70.9333 101° East 305 351 8,700 -1,440 Descending KA90
09:53 42.3667 -70.8500 137° Southeast 291 335 7,100 -1,200 Descending KA90
09:54 42.3642 -70.8469 138° Southeast 288 331 6,900 -1,740 Descending Boston Center
09:55 42.3089 -70.7697 134° Southeast 269 310 4,800 -1,800 Descending Boston Center
09:56 42.2503 -70.7600 173° South 234 269 3,400 -900 Descending Boston Center
09:57 42.2433 -70.8444 264° West 132 152 3,000 -600 Descending Boston Center
09:58 42.2817 -70.8967 315° West 170 196 2,300 -960 Descending Boston Center
09:58 42.3000 -70.9333 304° West 184 212 1,600 -1,080 Descending KA90
09:59 42.3333 -70.9667 324° Northwest 136 157 800 5,280 Descending KA90
10:01 42.3814 -71.0375 313° West 167 192 15,000 8,760 Climbing Boston Center